Stations météo

réclame
Mon MeteoGroup
Sint Katelijne-Waver, Belgique (6439): Température de l'air & dewpoint: 10.06.2019 02:00:00 - 16.06.2019 02:00:00 (CEST)Sint Katelijne-Waver, Belgique (6439): Vitesse du vent & gusts: 10.06.2019 02:00:00 - 16.06.2019 02:00:00 (CEST)Sint Katelijne-Waver, Belgique (6439): Direction du vent: 10.06.2019 02:00:00 - 16.06.2019 02:00:00 (CEST)Sint Katelijne-Waver, Belgique (6439): reduced air pressure: 10.06.2019 02:00:00 - 16.06.2019 02:00:00 (CEST)Sint Katelijne-Waver, Belgique (6439): Ensoleillement: 10.06.2019 02:00:00 - 16.06.2019 02:00:00 (CEST)Sint Katelijne-Waver, Belgique (6439): Quantités de précipitations: 10.06.2019 02:00:00 - 16.06.2019 02:00:00 (CEST)
Date & Time tt [°C] td [°C] ff [km/h] ff [knt] fx [km/h] fx [knt] dd ppp [hPa] sd [min] rr [mm]
16.06.2019 02:00:00 12,7 11,9 4 2 5 3 SE 1017,9 0 0,0
16.06.2019 01:00:00 13,9 12,8 4 2 5 3 ESE 1017,6 0 0,0
16.06.2019 00:00:00 15,0 13,4 4 2 7 4 SE 1016,9 0 0,0
15.06.2019 23:00:00 14,9 13,2 0 0 5 3 N 1016,8 0 0,0
15.06.2019 22:00:00 16,7 13,3 4 2 6 4 E 1016,4 12 0,0
15.06.2019 21:00:00 17,8 13,4 4 2 11 6 N 1016,2 49 0,0
15.06.2019 20:00:00 18,0 13,2 7 4 19 11 N 1016,2 14 0,0
15.06.2019 19:00:00 18,7 13,3 13 7 24 13 WNW 1015,8 5 0,0
15.06.2019 18:00:00 21,0 13,7 8 4 16 8 SSW 1015,4 50 0,0
15.06.2019 17:00:00 20,3 13,7 4 2 14 7 NNW 1015,6 58 0,0
15.06.2019 16:00:00 19,6 13,9 6 3 16 9 WSW 1015,8 59 0,0
15.06.2019 15:00:00 18,0 14,8 6 3 17 9 WNW 1015,8 29 0,0
15.06.2019 14:00:00 16,1 14,7 11 6 19 10 WSW 1016,2 0 0,0
15.06.2019 13:00:00 15,9 14,7 10 6 19 10 W 1015,1 0 0,0
15.06.2019 12:00:00 15,8 14,8 9 5 16 9 WSW 1014,6 0 1,2
15.06.2019 11:00:00 16,1 14,5 10 5 16 9 SSW 1014,0 0 0,0
15.06.2019 10:00:00 15,6 14,6 8 4 13 7 SW 1013,3 0 0,0
15.06.2019 09:00:00 14,8 14,2 8 4 14 8 WSW 1012,8 0 0,1
15.06.2019 08:00:00 14,0 13,3 4 2 19 11 SSW 1011,7 0 0,3
15.06.2019 07:00:00 13,7 13,0 7 4 21 11 NNW 1011,5 0 2,4
15.06.2019 06:00:00 13,4 12,6 12 6 25 13 WNW 1011,8 0 2,8
15.06.2019 05:00:00 14,4 13,2 10 5 17 9 WNW 1011,4 0 2,3
15.06.2019 04:00:00 15,7 13,6 8 5 12 7 W 1011,3 0 0,9
15.06.2019 03:00:00 16,6 12,7 6 3 23 12 N 1011,2 0 0,0
15.06.2019 02:00:00 16,8 12,3 11 6 18 10 NNE 1011,3 0 0,0
15.06.2019 01:00:00 17,3 12,8 10 5 18 10 N 1012,2 0 0,0
15.06.2019 00:00:00 18,0 13,5 9 5 18 10 N 1012,9 0 0,0
14.06.2019 23:00:00 19,0 13,7 10 5 20 11 N 1013,2 0 0,0
14.06.2019 22:00:00 21,2 13,8 8 4 15 8 NW 1012,7 20 0,0
14.06.2019 21:00:00 22,7 13,3 5 3 12 6 NNW 1012,7 59 0,0
14.06.2019 20:00:00 23,3 13,4 7 4 14 8 WNW 1012,7 60 0,0
14.06.2019 19:00:00 23,6 13,2 6 3 21 11 W 1012,9 60 0,0
14.06.2019 18:00:00 23,7 13,4 9 5 25 13 WSW 1013,0 60 0,0
14.06.2019 17:00:00 23,4 13,0 14 8 26 14 SW 1013,5 60 0,0
14.06.2019 16:00:00 23,2 13,1 18 10 29 16 SSW 1013,8 58 0,0
14.06.2019 15:00:00 22,3 13,6 16 9 27 15 S 1014,6 34 0,0
14.06.2019 14:00:00 21,4 14,2 10 5 - - SSE 1014,6 27 -
14.06.2019 13:00:00 20,3 13,0 10 5 24 13 S 1014,6 58 0,0
14.06.2019 12:00:00 18,1 14,0 9 5 18 10 SSE 1014,6 35 0,0
14.06.2019 11:00:00 16,6 13,6 8 4 18 10 SSE 1014,2 22 0,0
14.06.2019 10:00:00 14,6 13,0 7 4 18 10 SE 1013,2 9 0,1
14.06.2019 09:00:00 13,1 12,1 6 4 14 7 S 1014,8 0 0,4
14.06.2019 08:00:00 12,5 11,8 4 2 15 8 SSE 1013,9 0 0,0
14.06.2019 07:00:00 11,8 11,2 0 0 5 3 N 1013,2 0 0,0
14.06.2019 06:00:00 11,5 10,9 0 0 8 4 N 1013,0 0 0,0
14.06.2019 05:00:00 11,2 10,6 4 2 8 4 ESE 1012,8 0 0,0
14.06.2019 04:00:00 11,7 10,9 4 2 9 5 SE 1012,8 0 0,0
14.06.2019 03:00:00 12,4 11,6 5 3 9 5 ESE 1013,1 0 0,0
14.06.2019 02:00:00 12,8 12,1 4 2 9 5 SSE 1013,5 0 0,0
14.06.2019 01:00:00 12,4 11,7 5 3 9 5 SE 1013,4 0 0,0
14.06.2019 00:00:00 12,9 12,0 6 3 9 5 SSW 1013,6 0 0,1
13.06.2019 23:00:00 13,3 12,0 5 3 16 8 SSE 1013,1 0 1,5
13.06.2019 22:00:00 13,9 11,9 7 4 29 16 SSW 1012,1 22 2,8
13.06.2019 21:00:00 15,5 12,3 4 2 11 6 W 1011,9 19 0,0
13.06.2019 20:00:00 15,2 12,3 7 4 40 22 W 1011,0 23 3,0
13.06.2019 19:00:00 17,1 12,8 10 5 24 13 S 1010,8 47 0,3
13.06.2019 18:00:00 14,9 12,7 10 6 45 24 SSW 1011,4 2 1,8
13.06.2019 17:00:00 16,5 12,0 16 8 45 25 SW 1011,3 6 0,2
13.06.2019 16:00:00 17,8 11,2 22 12 44 24 S 1011,3 41 0,0
13.06.2019 15:00:00 15,2 12,4 13 7 - - S 1011,7 3 -
13.06.2019 14:00:00 - - - - - - - - 14 -
13.06.2019 13:00:00 16,4 9,0 18 10 40 21 S 1011,7 23 0,0
13.06.2019 12:00:00 17,6 10,1 19 10 44 24 S 1011,5 37 0,0
13.06.2019 11:00:00 17,1 9,9 21 12 40 22 S 1011,3 58 0,0
13.06.2019 10:00:00 15,6 9,7 21 11 41 22 S 1011,3 52 0,0
13.06.2019 09:00:00 14,5 9,5 20 11 39 21 S 1011,0 40 0,0
13.06.2019 08:00:00 13,8 9,7 14 8 35 19 S 1010,6 23 0,0
13.06.2019 07:00:00 12,9 9,8 15 8 29 16 S 1010,8 7 0,0
13.06.2019 06:00:00 11,8 9,8 9 5 18 10 S 1010,2 0 0,0
13.06.2019 05:00:00 11,4 9,8 10 5 20 11 SSE 1009,8 0 0,0
13.06.2019 04:00:00 11,3 9,4 10 5 19 11 SSE 1009,6 0 0,0
13.06.2019 03:00:00 11,4 9,2 7 4 16 9 SSE 1010,0 0 0,0
13.06.2019 02:00:00 12,0 9,5 11 6 14 8 SSE 1010,0 0 0,0
13.06.2019 01:00:00 12,5 9,6 7 4 11 6 SSE 1010,0 0 0,0
13.06.2019 00:00:00 13,4 9,5 6 4 13 7 SSE 1010,0 0 0,0
12.06.2019 23:00:00 14,4 9,9 7 4 15 8 S 1010,1 0 0,0
12.06.2019 22:00:00 15,6 9,5 8 5 20 11 SSW 1009,9 29 0,0
12.06.2019 21:00:00 16,9 9,4 12 6 21 12 SSW 1009,7 38 0,0
12.06.2019 20:00:00 - - - - - - - - - -
12.06.2019 19:00:00 16,6 11,7 10 5 23 12 S 1009,2 10 0,1
12.06.2019 18:00:00 17,2 10,5 14 7 29 15 SW 1009,2 44 0,0
12.06.2019 17:00:00 17,5 11,3 21 12 37 20 WSW 1009,5 55 0,0
12.06.2019 16:00:00 16,5 12,1 19 11 39 21 WSW 1009,5 27 0,0
12.06.2019 15:00:00 16,4 13,6 17 9 32 17 SW 1009,5 10 0,0
12.06.2019 14:00:00 - - - - - - - - 0 -
12.06.2019 13:00:00 14,7 13,3 4 2 9 5 N 1009,2 0 0,3
12.06.2019 12:00:00 14,4 13,3 4 2 8 4 W 1008,9 0 2,3
12.06.2019 11:00:00 14,0 12,9 4 2 9 5 N 1009,5 0 1,4
12.06.2019 10:00:00 14,0 13,0 5 3 12 6 NNW 1008,9 0 1,0
12.06.2019 09:00:00 13,6 12,7 4 2 5 3 WNW 1009,0 0 2,8
12.06.2019 08:00:00 13,5 12,3 4 2 12 7 N 1009,1 0 0,2
12.06.2019 07:00:00 13,7 12,4 6 3 12 7 N 1009,5 0 0,2
12.06.2019 06:00:00 13,9 12,2 4 2 9 5 N 1009,9 0 0,2
12.06.2019 05:00:00 14,2 12,2 4 2 5 3 N 1010,4 0 0,0
12.06.2019 04:00:00 14,3 12,3 4 2 8 4 N 1011,0 0 0,0
12.06.2019 03:00:00 14,3 12,6 4 2 6 4 ENE 1011,5 0 0,2
12.06.2019 02:00:00 14,8 12,4 0 0 4 2 N 1011,4 0 0,1
12.06.2019 01:00:00 15,1 11,3 4 2 6 3 E 1011,6 0 0,0
12.06.2019 00:00:00 15,8 10,9 4 2 9 5 NNW 1011,9 0 0,0
11.06.2019 23:00:00 16,3 9,9 4 2 13 7 SE 1012,2 0 0,0
11.06.2019 22:00:00 17,1 9,8 7 4 12 7 ESE 1012,3 0 0,0
11.06.2019 21:00:00 17,5 10,7 4 2 7 4 E 1012,2 0 0,0
11.06.2019 20:00:00 18,2 9,7 4 2 6 3 ENE 1012,1 0 0,0
11.06.2019 19:00:00 18,8 7,5 4 2 8 5 ESE 1012,1 10 0,0
11.06.2019 18:00:00 19,2 7,7 5 3 12 7 W 1012,3 9 0,0
11.06.2019 17:00:00 19,0 8,2 5 3 16 9 W 1012,6 29 0,0
11.06.2019 16:00:00 18,5 8,0 6 3 15 8 SSW 1012,8 11 0,0
11.06.2019 15:00:00 18,7 8,4 7 4 19 10 SW 1012,7 41 0,0
11.06.2019 14:00:00 18,6 8,9 11 6 21 11 SW 1012,7 31 0,0
11.06.2019 13:00:00 17,7 9,0 9 5 16 9 WSW 1012,7 47 0,0
11.06.2019 12:00:00 16,4 9,1 9 5 20 11 WSW 1012,8 53 0,0
11.06.2019 11:00:00 15,4 9,4 7 4 17 9 WSW 1012,6 58 0,0
11.06.2019 10:00:00 14,5 9,3 10 5 17 9 SW 1012,6 60 0,0
11.06.2019 09:00:00 13,3 9,9 10 5 19 10 SW 1012,4 59 0,0
11.06.2019 08:00:00 11,9 10,2 7 4 16 9 SW 1012,4 34 0,0
11.06.2019 07:00:00 10,3 9,2 7 4 11 6 SW 1012,8 0 0,0
11.06.2019 06:00:00 10,2 9,2 6 3 10 5 SW 1012,6 0 0,0
11.06.2019 05:00:00 10,5 9,4 5 3 9 5 SW 1012,4 0 0,0
11.06.2019 04:00:00 11,1 9,6 6 3 14 8 SW 1012,4 0 0,0
11.06.2019 03:00:00 11,9 10,0 10 5 17 9 SW 1012,0 0 0,0
11.06.2019 02:00:00 - - - - - - - - 0 -
11.06.2019 01:00:00 14,2 12,0 - - 19 11 - - 0 0,0
11.06.2019 00:00:00 15,4 14,3 - - 13 7 - - 0 0,0
10.06.2019 23:00:00 15,4 14,5 4 2 12 7 SSE 1011,4 0 0,0
10.06.2019 22:00:00 15,4 14,2 6 3 15 8 ESE 1011,3 0 0,2
10.06.2019 21:00:00 16,5 15,3 7 4 11 6 E 1010,8 0 0,5
10.06.2019 20:00:00 17,0 15,1 4 2 21 12 SW 1010,8 0 0,8
10.06.2019 19:00:00 18,0 15,3 4 2 18 10 W 1010,0 0 1,8
10.06.2019 18:00:00 21,0 11,5 5 3 9 5 WSW 1010,4 12 0,0
10.06.2019 17:00:00 21,6 11,6 4 2 10 6 SSE 1010,0 60 0,0
10.06.2019 16:00:00 20,1 15,7 5 3 22 12 SSE 1010,8 24 0,5
10.06.2019 15:00:00 21,2 13,0 7 4 14 8 WSW 1011,2 14 0,0
10.06.2019 14:00:00 21,7 13,4 4 2 12 6 SSE 1011,4 59 0,0
10.06.2019 13:00:00 19,6 12,7 8 4 15 8 E 1012,2 5 0,0
10.06.2019 12:00:00 18,7 12,0 9 5 16 8 NE 1012,3 15 0,0
10.06.2019 11:00:00 18,6 12,3 5 3 17 9 ESE 1013,0 60 0,0
10.06.2019 10:00:00 16,8 11,4 9 5 16 8 ENE 1013,5 60 0,0
10.06.2019 09:00:00 15,8 11,2 10 5 18 10 ENE 1014,0 48 0,0
10.06.2019 08:00:00 15,1 11,1 7 4 13 7 ENE 1014,5 30 0,0
10.06.2019 07:00:00 13,4 10,5 4 2 12 6 NNE 1014,8 24 0,0
10.06.2019 06:00:00 13,2 10,1 6 3 12 7 NNE 1015,0 0 0,0
10.06.2019 05:00:00 12,7 9,4 5 3 9 5 N 1015,4 0 0,0
10.06.2019 04:00:00 14,2 9,2 5 3 11 6 N 1016,0 0 0,0
10.06.2019 03:00:00 - - - - - - - - 0 -
10.06.2019 02:00:00 15,3 9,5 11 6 18 10 NE 1017,3 0 0,0

tt = Température de l'air
td = dewpoint
ff = Vitesse du vent
fx = gusts
dd = Direction du vent
ppp = reduced air pressure
sd = Ensoleillement
rr = Quantités de précipitations

stations d'obs. à proximité